Tiempo atmosférico en la estación meteorológica de Baza, Granada (801 m.)



Fecha
DESCASC
Temp. máxima en grados centígrados (hora)
DESCASC
Temp. mínima en grados centígrados (hora)
DESCASC
Temp. media en grados centígrados
DESCASC
Racha de viento máxima en m/sg (hora)
DESCASC
Velocidad máxima media en intervalos de 10 minutos(hora)
DESCASC
Precipitaciones diarias en mm
DESCASC
Precipitaciones de 00:00 a 06:00 en mm
DESCASC
Precipitaciones de 06:00 a 12:00 en mm
DESCASC
Precipitaciones de 12:00 a 18:00 en mm
DESCASC
Precipitaciones de 18:00 a 24:00 en mm
DESCASC
29-10-2020 26.3 (16:10) 3.2 (06:30) 14.7 7.22 (16:40) 4.17 (16:40) -- -- 0 0 0
28-10-2020 21.6 (16:10) 1 (07:50) 11.3 5.56 (16:10) 3.89 (16:10) 0 0 0 0 0
27-10-2020 16.8 (15:50) 0.1 (00:00) 8.4 9.17 (11:10) 6.11 (13:40) 0 0 0 0 0
26-10-2020 14.4 (02:40) 6 (00:00) 10.2 15.28 (04:30) 9.72 (04:30) 0.6 0.6 0 0 0
25-10-2020 20.3 (14:00) 3.3 (00:00) 11.8 9.72 (23:20) 5.56 (14:10) 0 0 0 0 0
24-10-2020 -- (--) -- (--) -- -- (--) -- (--) 0 0 0 0 0
23-10-2020 18.7 (17:00) 9.2 (00:00) 14 9.17 (14:40) 5.28 (14:40) 0 0 0 0 0
22-10-2020 16.9 (00:20) 11.8 (00:00) 14.3 8.89 (09:40) 4.72 (09:40) 7.8 0 3.4 3.8 0.6
21-10-2020 22.3 (14:10) 12.7 (00:00) 17.5 10.56 (02:20) 6.67 (02:20) 0 0 0 0 0
20-10-2020 27.2 (15:30) 8.9 (00:00) 18.1 11.67 (14:40) 7.22 (15:40) 0 0 0 0 0
19-10-2020 25.2 (16:10) 2.3 (00:00) 13.8 10.28 (20:00) 6.11 (15:30) 0 0 0 0 0
18-10-2020 25.9 (16:10) 0.9 (00:00) 13.4 8.33 (18:00) 5 (18:00) 0 0 0 0 0
17-10-2020 23.3 (17:00) -0.4 (00:00) 11.4 7.78 (13:50) 3.33 (18:00) 0 0 0 0 0
16-10-2020 21.4 (16:20) 0.1 (00:00) 10.7 7.5 (16:00) 4.17 (18:00) 0 0 0 0 0
15-10-2020 21 (16:10) 1.8 (00:00) 11.4 9.44 (14:20) 5 (14:30) 0 0 0 0 0
14-10-2020 20.2 (15:10) 7.3 (00:00) 13.8 10.56 (17:00) 6.11 (13:50) 0 0 0 0 0
13-10-2020 24.8 (16:30) 1.4 (00:00) 13.1 8.33 (16:40) 5 (17:00) 0 0 0 0 0
12-10-2020 21.2 (17:20) 2 (00:00) 11.6 7.5 (16:50) 5.28 (17:00) 0 0 0 0 0
11-10-2020 24.3 (16:00) 8.2 (23:59) 16.2 10.83 (16:30) 6.94 (16:30) 0 0 0 0 0
10-10-2020 30.3 (16:20) 9.1 (08:30) 19.7 9.17 (17:00) 5.56 (16:50) 0 0 0 0 0
09-10-2020 28.6 (16:10) 8.2 (08:10) 18.4 7.78 (20:30) 4.17 (20:40) 0 0 0 0 0

Gráficas

Temp. máximas Temp. mínimas Temp. medias Precipitaciones Rachas de viento máximas Velocidades máximas media en intervalos de 10 minutos

Datos horarios

Fecha y hora oficial Temperatura (ºC) Velocidad del viento (km/h) Dirección del viento Racha (km/h) Dirección de racha Precipitación (mm) Presión (hPa) Tendencia (hPa) Humedad (%)
2020-10-29 23:00:00 11.1 4 Sur 15 Sudeste 0 936.7 1 77
2020-10-29 22:00:00 12.4 10 Sudeste 15 Sudeste 0 936.4 1.1 72
2020-10-29 21:00:00 14.1 6 Este 19 Sur 0 936.1 1.7 69
2020-10-29 20:00:00 15.3 11 Sur 22 Sur 0 935.7 1.6 65
2020-10-29 19:00:00 16.8 12 Sur 20 Sur 0 935.3 1 58
2020-10-29 18:00:00 19.4 13 Sudeste 23 Sudeste 0 934.4 0.1 48
2020-10-29 17:00:00 22.9 14 Sur 26 Sur 0 934.1 -0.7 37
2020-10-29 16:00:00 26 3 Sudoeste 13 Noroeste 0 934.3 -1.3 29
2020-10-29 15:00:00 25 5 Norte 15 Noroeste 0 934.3 -2.1 31
2020-10-29 14:00:00 23.8 6 Este 13 Noroeste 0 934.8 -- 34
2020-10-29 13:00:00 21.6 3 Sudeste 12 Noroeste 0 935.6 -- 38
2020-10-29 12:00:00 17.8 3 Oeste 9 Noroeste 0 936.4 -- 47
2020-10-29 11:00:00 13.2 3 Sudoeste 8 Noroeste 0 936.8 -- 58
2020-10-29 10:00:00 8.9 4 Noroeste 8 Norte 0 936.8 -- 79
2020-10-29 09:00:00 6.1 0 Calma 6 Sur 0 936.4 -- 93
2020-10-29 08:00:00 3.7 2 Sur 5 Norte 0 936.1 -- 93
2020-10-29 07:00:00 3.6 4 Sur 7 Sur 0 935.4 -- 93
2020-10-29 06:00:00 3.5 6 Sur -- -- -- 935.2 -- 91
2020-10-29 05:00:00 3.9 8 Sur 10 Sudeste 0 935 -- 92
2020-10-29 04:00:00 4 8 Sur 9 Sur 0 934.6 -- 89
2020-10-29 03:00:00 5 4 Oeste 5 Oeste 0 934.7 -- 88
2020-10-29 02:00:00 5.4 3 Sudoeste 10 Sudeste 0 934.5 -- 85
2020-10-29 01:00:00 6.3 8 Sudeste 11 Sudeste 0 934.8 -- 81
2020-10-29 00:00:00 6.6 9 Sudeste -- -- 0 934.8 -- 80
2020-10-28 23:00:00 7.5 8 Sudeste 11 Sudeste 0 934.9 -- 77
2020-10-28 22:00:00 8.8 9 Sudeste 11 Sur 0 934.5 -- 73
2020-10-28 21:00:00 10.8 8 Sur 13 Sur 0 934 -- 66
2020-10-28 20:00:00 13 5 Sur 13 Sur 0 933.3 -- 58
2020-10-28 19:00:00 15.9 8 Sudoeste 17 Oeste 0 932.6 -- 44
2020-10-28 18:00:00 18.7 10 Oeste 16 Oeste 0 931.8 -- 35
2020-10-28 17:00:00 21.1 12 Oeste 20 Oeste 0 931.6 -- 30
2020-10-28 16:00:00 21.5 9 Noroeste 17 Oeste 0 931.5 -- 33
2020-10-28 15:00:00 20.5 6 Oeste 11 Oeste 0 931.5 -- 28
2020-10-28 14:00:00 19.5 3 Oeste 9 Noroeste 0 931.8 -- 32
2020-10-28 13:00:00 15.6 3 Norte 9 Nordeste 0 932.3 -- 46
2020-10-28 12:00:00 12.5 4 Norte 9 Nordeste 0 933.2 -- 52
2020-10-28 11:00:00 9.6 3 Norte 8 Norte 0 933.5 -- 64
2020-10-28 10:00:00 6.4 3 Oeste 8 Noroeste 0 933.4 -- 77
2020-10-28 09:00:00 3.9 5 Noroeste 8 Noroeste 0 933.2 -- 88
2020-10-28 08:00:00 1.5 3 Sur 8 Sudeste 0 932.3 -- 93
2020-10-28 07:00:00 1.6 3 Oeste 7 Sudeste 0 931.6 -- 92
2020-10-28 06:00:00 1.7 4 Sudeste 7 Sudeste 0 931.1 -- 90
2020-10-28 05:00:00 2.5 4 Sur 6 Sudoeste 0 930.7 -- 87
2020-10-28 04:00:00 2.8 6 Sur 9 Sudeste 0 930.4 -- 86
2020-10-28 03:00:00 4.2 2 Noroeste 8 Sudeste 0 930.5 -- 81
2020-10-28 02:00:00 5.5 3 Sudeste 7 Oeste 0 930.5 -- 75
2020-10-28 01:00:00 7.5 4 Oeste 11 Sudoeste 0 930.8 -- 66
2020-10-28 00:00:00 9.1 6 Noroeste 24 Oeste 0 931 -- 60
2020-10-27 23:00:00 9.9 12 Oeste 19 Oeste 0 931 -- 56
2020-10-27 22:00:00 10.4 10 Oeste 19 Oeste 0 931.1 -- 53
2020-10-27 21:00:00 10.6 6 Sur 26 Oeste 0 931 -- 53
2020-10-27 20:00:00 11.3 19 Oeste 30 Oeste 0 930.3 -- 50
2020-10-27 19:00:00 11.9 12 Sudoeste 19 Sudoeste 0 930 -- 49
2020-10-27 18:00:00 13.8 13 Oeste 27 Oeste 0 929.3 -- 42
2020-10-27 17:00:00 15.9 18 Oeste 29 Oeste 0 929.2 -- 38
2020-10-27 16:00:00 16.6 16 Oeste 31 Oeste 0 929.1 -- 38
2020-10-27 15:00:00 16.2 19 Noroeste 31 Noroeste 0 929.3 -- 36
2020-10-27 14:00:00 15.8 18 Oeste 32 Oeste 0 929.6 -- 32
2020-10-27 13:00:00 14.5 18 Oeste 30 Oeste 0 930.5 -- 38
2020-10-27 12:00:00 12.7 19 Oeste 33 Oeste 0 931.3 -- 44
2020-10-27 11:00:00 11.2 22 Oeste 33 Oeste 0 931.2 -- 52
2020-10-27 10:00:00 8.8 16 Noroeste 26 Noroeste 0 931.2 -- 66
2020-10-27 09:00:00 3.4 3 Sudeste 10 Sudeste 0 931.2 -- 81
2020-10-27 08:00:00 0.5 8 Sudeste -- -- -- 930.8 -- 92
2020-10-27 07:00:00 0.6 5 Sudeste 9 Sudeste 0 930.6 -- 90
2020-10-27 06:00:00 1.4 6 Sudeste 10 Sur 0 930.4 -- 90
2020-10-27 05:00:00 1.9 3 Sudoeste 9 Sudeste 0 930.3 -- 87
2020-10-27 04:00:00 2.9 7 Sur 12 Sudoeste 0 930.3 -- 77
2020-10-27 03:00:00 5.1 5 Sur 9 Sur 0 930.5 -- 76
2020-10-27 02:00:00 6.3 6 Oeste 17 Oeste 0 930.9 -- 71
2020-10-27 01:00:00 6.7 12 Oeste 17 Oeste 0 931 -- 70
2020-10-27 00:00:00 6.8 7 Sudoeste 13 Sudoeste 0 931.2 -- 69
2020-10-26 23:00:00 6.6 5 Sudoeste 19 Noroeste 0 931.6 -- 72
2020-10-26 22:00:00 6.3 11 Noroeste 16 Noroeste 0 931.1 -- 74
2020-10-26 21:00:00 6.6 6 Sur 13 Sudeste 0 930.8 -- 75
2020-10-26 20:00:00 9 8 Sudoeste 15 Sudoeste 0 930.8 -- 61
2020-10-26 19:00:00 9.6 4 Sudoeste 19 Oeste 0 930.4 -- 61
2020-10-26 18:00:00 11.7 8 Noroeste 27 Noroeste 0 929.3 -- 52
2020-10-26 17:00:00 13.6 17 Oeste 41 Noroeste 0 928.8 -- 42
2020-10-26 16:00:00 13.8 27 Noroeste 45 Noroeste 0 928.3 -- 39
2020-10-26 15:00:00 13.8 22 Noroeste 39 Oeste 0 928.3 -- 43
2020-10-26 14:00:00 12.4 19 Noroeste 36 Oeste 0 928.5 -- 48
2020-10-26 13:00:00 12.9 19 Noroeste 36 Oeste 0 928.6 -- 51
2020-10-26 12:00:00 11.3 17 Noroeste 35 Oeste 0 928.9 -- 62
2020-10-26 11:00:00 11.1 20 Noroeste 39 Noroeste 0 928.5 -- 65
2020-10-26 10:00:00 10 23 Noroeste 34 Oeste 0 928.4 -- 67
2020-10-26 09:00:00 9.6 19 Noroeste 37 Oeste 0 927.6 -- 75
2020-10-26 08:00:00 8.6 16 Oeste 34 Noroeste 0 926.6 -- 82
2020-10-26 07:00:00 8.6 23 Noroeste 38 Oeste 0 926.3 -- 85
2020-10-26 06:00:00 9.1 19 Oeste 45 Oeste 0 925.7 -- 87
2020-10-26 05:00:00 9 25 Oeste 55 Oeste 0.2 924.9 -- 93
2020-10-26 04:00:00 9.9 32 Oeste 52 Oeste 0.4 925 -- 92
2020-10-26 03:00:00 12.1 22 Oeste 46 Oeste 0 924.8 -- 91
2020-10-26 02:00:00 14.1 22 Oeste 37 Oeste 0 923.5 -- 73
2020-10-26 01:00:00 14.1 21 Oeste 42 Oeste 0 924.5 -- 69
2020-10-26 00:00:00 13.3 14 Sudoeste 35 Oeste 0 925.4 -- 67
2020-10-25 23:00:00 12.9 7 Oeste 30 Noroeste 0 926.6 -- 63
2020-10-25 22:00:00 12.1 9 Noroeste 18 Oeste 0 927.4 -- 67
2020-10-25 21:00:00 12.1 11 Oeste 20 Noroeste 0 927.8 -- 69
2020-10-25 20:00:00 12 4 Norte 15 Norte 0 928 -- 74
2020-10-25 19:00:00 13.3 5 Norte 22 Oeste 0 927.8 -- 68
2020-10-25 18:00:00 15.7 9 Noroeste 21 Noroeste 0 927.3 -- 61
2020-10-25 17:00:00 18 13 Noroeste 26 Noroeste 0 927.2 -- 51
2020-10-25 16:00:00 19.6 13 Noroeste 29 Noroeste 0 927.4 -- 43
2020-10-25 15:00:00 19.5 19 Noroeste 31 Noroeste 0 928 -- 43
2020-10-25 14:00:00 20.2 15 Noroeste 29 Noroeste 0 928.2 -- 35
2020-10-25 13:00:00 18.7 14 Noroeste 29 Noroeste 0 929.1 -- 42
2020-10-25 12:00:00 15.9 13 Norte 26 Noroeste 0 930.1 -- 53
2020-10-25 11:00:00 13.6 12 Noroeste 20 Noroeste 0 930.8 -- 68
2020-10-25 10:00:00 9.6 5 Norte 12 Oeste 0 931.8 -- 90
2020-10-25 09:00:00 5.8 7 Sudeste 11 Sur 0 931.7 -- 95
2020-10-25 08:00:00 3.7 3 Oeste 7 Noroeste 0 931.5 -- 93
2020-10-25 07:00:00 3.6 0 Calma 12 Sur 0 931.3 -- 88
2020-10-25 06:00:00 4.4 9 Sur 12 Sudeste 0 931.5 -- 87
2020-10-25 05:00:00 5.3 9 Sur 13 Sur 0 931.8 -- 90
2020-10-25 04:00:00 5.9 7 Sur 13 Sur 0 932 -- 92
2020-10-25 03:00:00 6.5 3 Norte 9 Este 0 932.5 -- 92
2020-10-25 02:00:00 6.6 3 Sudoeste 11 Sur 0 932.8 -- 90
2020-10-25 01:00:00 8.9 8 Sur 12 Sur 0 933.8 -- 81
2020-10-25 00:00:00 11.1 5 Oeste 12 Oeste 0 934.4 -- 79
2020-10-24 23:00:00 11.5 6 Oeste 14 Oeste 0 934.2 -- 77
2020-10-24 22:00:00 11.5 5 Oeste 15 Oeste 0 934.1 -- 77
2020-10-24 21:00:00 12.2 0 Calma 17 Noroeste 0 934 -- 73
2020-10-24 20:00:00 14.1 10 Oeste -- -- -- 933.7 -- 63
2020-10-24 19:00:00 -- -- -- -- -- -- -- -- --
2020-10-24 18:00:00 -- -- -- -- -- -- -- -- --
2020-10-24 17:00:00 19.9 15 Noroeste 26 Oeste 0 933.3 -- 42
2020-10-24 16:00:00 19.9 16 Oeste 26 Noroeste 0 933.3 -- 38
2020-10-24 15:00:00 19.2 13 Noroeste 28 Noroeste 0 934.1 -- 34
2020-10-24 14:00:00 17.9 17 Noroeste 23 Noroeste 0 934.9 -- 42
2020-10-24 13:00:00 15.2 8 Norte 14 Noroeste 0 935.7 -- 58
2020-10-24 12:00:00 11.6 4 Norte -- -- 0 936.3 -- 78
2020-10-24 11:00:00 9.2 6 Norte 11 Norte 0 936.8 -- 89
2020-10-24 10:00:00 6.7 4 Oeste 7 Sudeste 0 936.5 -- 94
2020-10-24 09:00:00 4.4 4 Sudeste 8 Sudeste 0 936 -- 93
2020-10-24 08:00:00 4.5 6 Sudeste 12 Sudeste 0 935.9 -- 93
2020-10-24 07:00:00 4.6 6 Sur 10 Sudeste 0 935.8 -- 92
2020-10-24 06:00:00 5.3 8 Sudeste 12 Sudeste 0 935.7 -- 91
2020-10-24 05:00:00 5.3 8 Sudeste 13 Sudeste 0 935.5 -- 92
2020-10-24 04:00:00 5.8 6 Sudeste 11 Sur 0 935.7 -- 91
2020-10-24 03:00:00 6.6 5 Sudeste 11 Sur 0 936 -- 90
2020-10-24 02:00:00 6.8 7 Sur 11 Sur 0 935.8 -- 91
2020-10-24 01:00:00 7.4 5 Este 10 Sur 0 935.9 -- 89
2020-10-24 00:00:00 9.9 5 Sudoeste 10 Oeste 0 936.1 -- 83
2020-10-23 23:00:00 9.2 6 Sur 11 Sudeste 0 935.8 -- 89
2020-10-23 22:00:00 10 4 Sudeste 10 Sudoeste 0 935.1 -- 84
2020-10-23 21:00:00 11.8 6 Sudoeste 11 Oeste 0 934.5 -- 76
2020-10-23 20:00:00 13.1 6 Oeste 14 Oeste 0 934.2 -- 69
2020-10-23 19:00:00 14.6 9 Oeste 21 Oeste 0 933.7 -- 62
2020-10-23 18:00:00 17 13 Oeste 25 Oeste 0 933.3 -- 54
2020-10-23 17:00:00 18.5 13 Noroeste 24 Noroeste 0 932.9 -- 49
2020-10-23 16:00:00 18.6 10 Oeste 30 Oeste 0 932.6 -- 51
2020-10-23 15:00:00 17.7 16 Noroeste 33 Noroeste 0 932.4 -- 51
2020-10-23 14:00:00 16.6 13 Noroeste 25 Noroeste 0 932.7 -- 52
2020-10-23 13:00:00 16.1 13 Oeste 26 Noroeste 0 933 -- 59
2020-10-23 12:00:00 14.9 15 Noroeste -- -- 0 933.2 -- 70
2020-10-23 11:00:00 13.3 11 Oeste 19 Noroeste 0 933.3 -- 79
2020-10-23 10:00:00 11.3 7 Noroeste 13 Oeste 0 932.7 -- 91
2020-10-23 09:00:00 9.9 3 Norte 16 Oeste 0 932.1 -- 90
2020-10-23 08:00:00 10.6 6 Sudoeste 11 Sudoeste 0 931.5 -- 89
2020-10-23 07:00:00 11.4 8 Oeste 21 Oeste 0 930.8 -- 86
2020-10-23 06:00:00 12 12 Oeste 28 Oeste 0 930.4 -- 82
2020-10-23 05:00:00 10.6 8 Oeste 13 Oeste 0 930.1 -- 89
2020-10-23 04:00:00 9.9 6 Sur 12 Oeste 0 929.8 -- 89
2020-10-23 03:00:00 11.4 9 Oeste 19 Oeste 0 929.7 -- 91
2020-10-23 02:00:00 10.6 5 Sudoeste 10 Sudoeste 0 929.5 -- 94
2020-10-23 01:00:00 11.2 0 Calma 5 Oeste 0 929.3 -- 93
2020-10-23 00:00:00 11.8 4 Sudeste 11 Oeste 0 929.3 -- 92
2020-10-22 23:00:00 12.2 3 Norte 9 Norte 0 928.6 -- 92
2020-10-22 22:00:00 12.4 5 Noroeste 23 Oeste 0.4 928.2 -- 93
2020-10-22 21:00:00 13.6 4 Oeste 7 Oeste 0 927.5 -- 93
2020-10-22 20:00:00 13.5 3 Sur 8 Sudoeste 0 926.7 -- 91
2020-10-22 19:00:00 14 4 Sur 8 Sudeste 0.2 926.1 -- 91
2020-10-22 18:00:00 14.4 2 Noroeste 6 Norte 0.2 925.9 -- 89
2020-10-22 17:00:00 14.5 4 Norte 9 Nordeste 0.4 925.7 -- 88
2020-10-22 16:00:00 14.6 4 Nordeste 11 Norte 0 925.1 -- 88
2020-10-22 15:00:00 14.6 6 Norte 12 Norte 0.2 925.4 -- 90
2020-10-22 14:00:00 13.9 6 Norte 12 Nordeste 1.6 925.9 -- 93
2020-10-22 13:00:00 13.6 5 Oeste 8 Noroeste 1.4 926.4 -- 92
2020-10-22 12:00:00 13.5 4 Noroeste 9 Norte 0.4 926.4 -- 92
2020-10-22 11:00:00 13.1 3 Este 15 Sudoeste 1.8 926.2 -- 93
2020-10-22 10:00:00 12.8 13 Oeste 32 Oeste 1 926.1 -- 89
2020-10-22 09:00:00 12.7 6 Noroeste 12 Oeste 0.2 924.5 -- 90
2020-10-22 08:00:00 13 3 Norte 9 Noroeste 0 923.8 -- 85
2020-10-22 07:00:00 12.7 4 Este 8 Sudeste 0 924.2 -- 80
2020-10-22 06:00:00 13 6 Sudeste 9 Sudeste 0 924.2 -- 77
2020-10-22 05:00:00 14.1 5 Oeste 11 Noroeste 0 924.3 -- 70
2020-10-22 04:00:00 14.7 5 Oeste 13 Noroeste 0 924.7 -- 68
2020-10-22 03:00:00 15 7 Noroeste 17 Noroeste 0 924.9 -- 68
2020-10-22 02:00:00 15.8 4 Sudeste 12 Sudeste 0 924.7 -- 61
2020-10-22 01:00:00 16.1 4 Sudeste 22 Sur 0 924.9 -- 62
2020-10-22 00:00:00 16.8 14 Sur 33 Sur 0 925.3 -- 59
2020-10-21 23:00:00 15.7 4 Este 19 Sudeste 0 924.9 -- 66
2020-10-21 22:00:00 15.3 14 Sudeste 25 Este 0 924.8 -- 73
2020-10-21 21:00:00 15.9 7 Sur 10 Sur 0 925.6 -- 70
2020-10-21 20:00:00 17.1 9 Noroeste 17 Noroeste 0 925 -- 58
2020-10-21 19:00:00 18.6 2 Este 18 Noroeste 0 924 -- 51
2020-10-21 18:00:00 19.6 11 Noroeste 22 Noroeste 0 923.7 -- 41
2020-10-21 17:00:00 20.7 12 Noroeste 26 Noroeste 0 923.6 -- 41
2020-10-21 16:00:00 21.1 13 Noroeste 26 Noroeste 0 923.3 -- 38
2020-10-21 15:00:00 21.9 13 Noroeste 24 Noroeste 0 923.3 -- 36
2020-10-21 14:00:00 21.9 14 Noroeste 26 Oeste 0 923.8 -- 37
2020-10-21 13:00:00 21.1 17 Noroeste 33 Noroeste 0 924 -- 42
2020-10-21 12:00:00 20.2 11 Noroeste 24 Noroeste 0 924 -- 41
2020-10-21 11:00:00 17.2 8 Norte 15 Noroeste 0 924.2 -- 52
2020-10-21 10:00:00 15.2 4 Nordeste 13 Este 0 923.8 -- 62
2020-10-21 09:00:00 13.5 8 Sudeste 15 Este 0 923.3 -- 68
2020-10-21 08:00:00 13.3 3 Este 17 Norte 0 922.6 -- 69
2020-10-21 07:00:00 14.2 5 Norte 24 Oeste 0 921.7 -- 67
2020-10-21 06:00:00 15.6 15 Oeste 27 Noroeste 0 921.1 -- 64
2020-10-21 05:00:00 17.7 15 Oeste 23 Oeste 0 920.9 -- 60
2020-10-21 04:00:00 18.4 19 Oeste 35 Oeste 0 921.5 -- 61
2020-10-21 03:00:00 18.6 18 Oeste 38 Oeste 0 921.2 -- 59
2020-10-21 02:00:00 19.8 21 Oeste 35 Oeste 0 921.6 -- 49
2020-10-21 01:00:00 20.1 13 Oeste 29 Oeste 0 921.6 -- 36
2020-10-21 00:00:00 18.4 11 Sur 27 Sudeste 0 921.3 -- 42
2020-10-20 23:00:00 18.5 17 Sur 28 Sudeste 0 920.7 -- 43
2020-10-20 22:00:00 18.6 14 Sur 23 Sudeste 0 920.6 -- 46
2020-10-20 21:00:00 19.1 10 Sur 21 Sudeste 0 920.8 -- 37
2020-10-20 20:00:00 20.1 12 Sudeste 28 Sudeste 0 921.2 -- 33
2020-10-20 19:00:00 21.7 16 Sudeste 35 Sudeste 0 921.4 -- 32
2020-10-20 18:00:00 23.9 21 Sudeste 41 Sudeste 0 921.3 -- 26
2020-10-20 17:00:00 24.3 23 Sudeste 39 Sudeste 0 921.4 -- 24
2020-10-20 16:00:00 25.8 20 Sudeste 39 Este 0 922 -- 22
2020-10-20 15:00:00 25.7 22 Sudeste 42 Sudeste 0 922.6 -- 21
2020-10-20 14:00:00 22.7 10 Sur 26 Sudeste 0 924.2 -- 26
2020-10-20 13:00:00 20.2 15 Sudeste 26 Sudeste 0 925.5 -- 29
2020-10-20 12:00:00 19 11 Sudeste 20 Sudeste 0 925.9 -- 30
2020-10-20 11:00:00 17.9 8 Sudeste 26 Sudeste 0 926.5 -- 35
2020-10-20 10:00:00 13.3 7 Sudeste 13 Sudeste 0 926.3 -- 52
2020-10-20 09:00:00 9.9 3 Oeste 10 Sudeste 0 926.2 -0.4 73
2020-10-20 08:00:00 9.3 4 Sudoeste 7 Sur 0 926.2 -- 74
2020-10-20 07:00:00 9.1 4 Sur 11 Sudeste 0 926.5 -- 74
2020-10-20 06:00:00 10 8 Nordeste 14 Este 0 926.6 -1.2 68
2020-10-20 05:00:00 9.8 3 Oeste 6 Norte 0 926.8 -1.4 69
2020-10-20 04:00:00 10.1 3 Sur 8 Este 0 927 -- 69
2020-10-20 03:00:00 10.1 4 Nordeste 12 Este 0 927.8 -1.2 70
2020-10-20 02:00:00 9.7 8 Sudeste 13 Sudeste 0 928.2 -1 73
2020-10-20 01:00:00 10.3 7 Sudeste 12 Sudeste 0 928.6 -- 66
2020-10-20 00:00:00 11.7 11 Sudeste 17 Sudeste 0 929 0.2 60
2020-10-19 23:00:00 12 10 Sudeste 15 Sudeste 0 929.2 1.1 61
2020-10-19 22:00:00 13.3 4 Nordeste 17 Sudeste 0 929.1 -- 55
2020-10-19 21:00:00 14.6 10 Sudeste 28 Sudeste 0 928.8 -- 51
2020-10-19 20:00:00 15.9 18 Sudeste 37 Sudeste 0 928.1 0.2 47
2020-10-19 19:00:00 18.4 15 Sudeste 33 Sudeste 0 927.7 -- 42
2020-10-19 18:00:00 22.6 12 Sudeste 27 Sudeste 0 927.7 -- 31
2020-10-19 17:00:00 24.2 17 Sudeste 30 Sudeste 0 927.9 -- 26
2020-10-19 16:00:00 25 17 Sudeste 34 Sudeste 0 928 -- 20
2020-10-19 15:00:00 24.2 19 Sudeste 31 Sudeste 0 928.5 -- 21
2020-10-19 14:00:00 23.3 17 Sudeste 27 Sudeste 0 929.1 -- 21
2020-10-19 13:00:00 19.4 6 Sudeste 21 Sudeste 0 930.2 -- 28
2020-10-19 12:00:00 15.9 7 Norte 14 Norte 0 931 -- 37
2020-10-19 11:00:00 12.3 6 Norte 9 Nordeste 0 931.1 -- 46
2020-10-19 10:00:00 7 3 Sudeste 6 Sur 0 931.3 -- 68
2020-10-19 09:00:00 2.7 5 Sudeste 8 Sudeste 0 931.1 -- 84
2020-10-19 08:00:00 2.7 4 Sur 5 Sudoeste 0 930.7 -- 80
2020-10-19 07:00:00 2.7 4 Sudeste 9 Este 0 930.8 -- 80
2020-10-19 06:00:00 3.2 4 Este 12 Sur 0 930.9 -- 79
2020-10-19 05:00:00 3.6 8 Sur 10 Sudeste 0 930.9 -- 79
2020-10-19 04:00:00 4.2 6 Sudeste 9 Sudeste 0 931.2 -- 75
2020-10-19 03:00:00 5.1 5 Este 10 Este 0 931.3 -- 71
2020-10-19 02:00:00 6.2 8 Sudeste 11 Sudeste 0 931.4 -- 68
2020-10-19 01:00:00 6.7 8 Sudeste 11 Sudeste 0 931.6 -- 65
2020-10-19 00:00:00 7.8 6 Sudeste 13 Sudeste 0 931.8 -- 61
2020-10-18 23:00:00 9.8 10 Sudeste 13 Sudeste 0 931.4 -- 53
2020-10-18 22:00:00 12.7 6 Este 22 Sudeste 0 931.1 -- 44
2020-10-18 21:00:00 14.3 15 Sudeste 30 Sudeste 0 930.5 -- 39
2020-10-18 20:00:00 15.4 15 Sur 26 Sur 0 930 -- 33
2020-10-18 19:00:00 18.8 14 Sur 30 Sudeste 0 929.3 -- 32
2020-10-18 18:00:00 21.9 18 Sudeste 30 Sudeste 0 928.8 -- 26
2020-10-18 17:00:00 25 13 Sudeste 24 Este 0 928.6 -- 19
2020-10-18 16:00:00 25.8 10 Sudeste 24 Sudeste 0 928.8 -- 17
2020-10-18 15:00:00 25.2 13 Sudeste 25 Sudeste 0 928.9 -- 17
2020-10-18 14:00:00 21.6 5 Nordeste 17 Norte 0 929.5 -- 27
2020-10-18 13:00:00 17.9 7 Nordeste 14 Nordeste 0 930.6 -- 37
2020-10-18 12:00:00 14.2 3 Norte 6 Noroeste 0 931.2 -- 44
2020-10-18 11:00:00 9.4 2 Norte 7 Noroeste 0 931.6 -- 57
2020-10-18 10:00:00 5.6 4 Norte 6 Noroeste 0 931.4 -- 73
2020-10-18 09:00:00 1.7 5 Sudeste 8 Sudeste 0 930.6 -- 89
2020-10-18 08:00:00 1 7 Sur 10 Sur 0 930.5 -- 88
2020-10-18 07:00:00 1.3 5 Sur 6 Sur 0 930.2 -- 86
2020-10-18 06:00:00 1.9 4 Oeste -- -- 0 929.7 -- 83
2020-10-18 05:00:00 2.9 4 Sur 7 Sudeste 0 929.8 -- 79
2020-10-18 04:00:00 3.8 2 Sur 9 Sudoeste 0 929.8 -- 74
2020-10-18 03:00:00 3.9 8 Sur 10 Sur 0 929.8 -- 77
2020-10-18 02:00:00 5 5 Sur 10 Sudeste 0 929.9 -- 73
2020-10-18 01:00:00 7.5 5 Oeste 10 Sur 0 929.7 -- 60
2020-10-18 00:00:00 8.3 7 Sur 14 Sudeste 0 929.5 -- 54
2020-10-17 23:00:00 9.6 9 Sudeste 14 Sur 0 929.2 -- 49
2020-10-17 22:00:00 10.7 10 Sur 14 Sur 0 928.9 -- 47
2020-10-17 21:00:00 12.7 7 Sur 16 Sudeste 0 928.6 -- 46
2020-10-17 20:00:00 16.1 6 Sudoeste 14 Oeste 0 927.9 -- 31
2020-10-17 19:00:00 19.4 9 Oeste 17 Oeste 0 927.2 -- 24
2020-10-17 18:00:00 21.9 12 Noroeste 19 Oeste 0 926.8 -- 19
2020-10-17 17:00:00 22.9 8 Oeste 18 Oeste 0 926.8 -- 17
2020-10-17 16:00:00 21.7 8 Norte 16 Norte 0 926.9 -- 19
2020-10-17 15:00:00 21 9 Oeste 21 Oeste 0 927.1 -- 17
2020-10-17 14:00:00 19.7 9 Noroeste 28 Noroeste 0 927.8 -- 23
2020-10-17 13:00:00 16 6 Norte 14 Norte 0 928.6 -- 35
2020-10-17 12:00:00 12.5 5 Oeste 10 Sudeste 0 928.8 -- 42
2020-10-17 11:00:00 8 3 Sudoeste 8 Sudeste 0 929.2 -- 58
2020-10-17 10:00:00 4.4 4 Oeste 8 Noroeste 0 928.9 -- 69
2020-10-17 09:00:00 0.5 3 Oeste 6 Oeste 0 928.4 -- 90
2020-10-17 08:00:00 -0.1 4 Sur 5 Sur 0 928 -- 87
2020-10-17 07:00:00 0.6 4 Sur 9 Sur 0 927.8 -- 85
2020-10-17 06:00:00 1.2 2 Sudeste 5 Oeste 0 927.5 -- 83
2020-10-17 05:00:00 1.9 4 Sudeste 8 Sudeste 0 927.3 -- 82
2020-10-17 04:00:00 2.8 5 Sudeste 9 Sur 0 927.5 -- 78
2020-10-17 03:00:00 3.5 7 Sudeste 8 Sudeste 0 927.6 -- 75
2020-10-17 02:00:00 4.8 5 Sur 6 Sur 0 927.9 -- 70
2020-10-17 01:00:00 6.2 2 Sudeste 11 Sudeste 0 928.1 -- 63
2020-10-17 00:00:00 7 9 Sudeste 12 Sudeste 0 927.9 -- 59
2020-10-16 23:00:00 7.9 10 Sudeste 13 Sudeste 0 927.9 -- 56
2020-10-16 22:00:00 11.6 7 Sur 12 Sudoeste 0 927.6 -- 44
2020-10-16 21:00:00 13.4 6 Sudoeste 13 Oeste 0 927.4 1.7 37
2020-10-16 20:00:00 14.8 8 Oeste 17 Oeste 0 926.9 -- 33
2020-10-16 19:00:00 18 12 Noroeste 22 Oeste 0 926.1 -- 26
2020-10-16 18:00:00 20 15 Oeste 26 Noroeste 0 925.7 -- 23
2020-10-16 17:00:00 21.4 13 Noroeste 26 Noroeste 0 925.7 -- 20
2020-10-16 16:00:00 21.1 12 Noroeste 27 Noroeste 0 925.9 -- 21
2020-10-16 15:00:00 20.1 10 Noroeste 20 Noroeste 0 926.5 -- 21
2020-10-16 14:00:00 18.7 5 Noroeste 14 Norte 0 927.3 -- 28
2020-10-16 13:00:00 15.4 6 Noroeste 12 Norte 0 928.2 -- 39
2020-10-16 12:00:00 11.9 5 Noroeste 9 Noroeste 0 928.7 -- 46
2020-10-16 11:00:00 7.9 5 Norte 9 Noroeste 0 929.1 1.1 58
2020-10-16 10:00:00 4.5 3 Noroeste 6 Norte 0 928.7 0.7 71
2020-10-16 09:00:00 1.4 2 Oeste 8 Sur 0 928.2 0.7 88
2020-10-16 08:00:00 0.3 6 Sudeste 7 Sudeste 0 928 -- 85
2020-10-16 07:00:00 1.2 3 Sudoeste 9 Sur 0 928 -- 84
2020-10-16 06:00:00 1.6 6 Sudeste 8 Sudeste 0 927.5 -- 83
2020-10-16 05:00:00 2 5 Sur 7 Sur 0 927.5 -- 82
2020-10-16 04:00:00 3 5 Sudeste 10 Sur 0 927.5 -- 78
2020-10-16 03:00:00 3.4 6 Sur 8 Sur 0 927.7 -- 78
2020-10-16 02:00:00 4.7 3 Este 8 Sudeste 0 927.9 -- 70
2020-10-16 01:00:00 5.9 4 Sudeste 9 Este 0 927.8 -- 63
2020-10-16 00:00:00 8.5 8 Sudeste 15 Oeste 0 927.6 -- 52
2020-10-15 23:00:00 10.5 9 Oeste 13 Oeste 0 927.4 -- 45
2020-10-15 22:00:00 11.1 4 Oeste 12 Oeste 0 926.9 -- 44
2020-10-15 21:00:00 13.1 11 Oeste 15 Oeste 0 926.4 -- 36
2020-10-15 20:00:00 14.7 10 Oeste 18 Oeste 0 925.9 -- 32
2020-10-15 19:00:00 17.8 10 Noroeste 25 Oeste 0 925.3 -- 28
2020-10-15 18:00:00 19.8 14 Noroeste 23 Oeste 0 925 -0.5 24
2020-10-15 17:00:00 20.7 15 Noroeste 30 Noroeste 0 924.9 -- 22
2020-10-15 16:00:00 20.4 14 Noroeste 27 Noroeste 0 925.1 -- 21
2020-10-15 15:00:00 19.7 15 Noroeste 34 Noroeste 0 925.5 -- 20
2020-10-15 14:00:00 18.5 17 Noroeste 29 Noroeste 0 926.2 -- 25
2020-10-15 13:00:00 16.7 12 Noroeste 23 Noroeste 0 927 -- 31
2020-10-15 12:00:00 13.1 6 Noroeste 13 Noroeste 0 927.5 -- 46
2020-10-15 11:00:00 9 5 Norte 9 Norte 0 927.9 -- 58
2020-10-15 10:00:00 5.5 4 Noroeste 7 Noroeste 0 927.9 -- 70
2020-10-15 09:00:00 2.3 5 Sudeste 6 Oeste 0 927.4 -- 85
2020-10-15 08:00:00 2.1 3 Oeste 5 Noroeste 0 927.1 -- 85
2020-10-15 07:00:00 2.7 2 Sudoeste 8 Sur 0 926.6 -- 86
2020-10-15 06:00:00 3 2 Sudeste 9 Sudeste 0 926 -- 87
2020-10-15 05:00:00 3.5 6 Sudeste 12 Sudeste 0 925.9 -- 88
2020-10-15 04:00:00 4.3 7 Sudeste 9 Sur 0 926.1 -- 86
2020-10-15 03:00:00 4.8 8 Sudeste 10 Sudeste 0 926.3 -- 85